Tiempo atmosférico en la estación meteorológica de Abenójar, Ciudad Real (718 m.)



Fecha
DESCASC
Temp. máxima en grados centígrados (hora)
DESCASC
Temp. mínima en grados centígrados (hora)
DESCASC
Temp. media en grados centígrados
DESCASC
Racha de viento máxima en m/sg (hora)
DESCASC
Velocidad máxima media en intervalos de 10 minutos(hora)
DESCASC
Precipitaciones diarias en mm
DESCASC
Precipitaciones de 00:00 a 06:00 en mm
DESCASC
Precipitaciones de 06:00 a 12:00 en mm
DESCASC
Precipitaciones de 12:00 a 18:00 en mm
DESCASC
Precipitaciones de 18:00 a 24:00 en mm
DESCASC
17-08-2018 32 (17:40) 17.1 (07:40) 24.6 9.17 (00:10) 5.28 (00:40) 0.2 0.2 0 0 0
16-08-2018 33.2 (17:40) 18.4 (07:20) 25.8 11.39 (19:00) 7.5 (19:00) 4.6 0 0 0 4.6
15-08-2018 34.2 (17:40) 19 (07:40) 26.6 9.44 (15:10) 4.44 (14:10) 0 0 0 0 0
14-08-2018 34.5 (17:30) 15.6 (07:30) 25.1 7.22 (19:30) 3.89 (19:30) 0 0 0 0 0
13-08-2018 31.5 (16:40) 17.7 (08:20) 24.6 10.56 (17:00) 6.67 (14:40) 0 0 0 0 0
12-08-2018 34.1 (18:10) 19.6 (00:00) 26.8 10.28 (13:40) 5.28 (19:10) 0 0 0 0 0
11-08-2018 35.4 (17:00) 18.3 (00:00) 26.9 15 (21:30) 7.22 (22:10) 3.4 0 0 0 3.4
10-08-2018 34.3 (18:50) 15.9 (00:00) 25.1 8.61 (08:20) 5.83 (08:20) 0 0 0 0 0
09-08-2018 29.1 (17:20) 14.4 (00:00) 21.8 10.56 (16:40) 6.11 (16:20) 0 0 0 0 0
08-08-2018 34.9 (16:10) 18.4 (00:00) 26.7 13.06 (18:50) 7.78 (19:20) 0 0 0 0 0
07-08-2018 36.6 (16:00) 21.2 (00:00) 28.9 12.22 (17:10) 7.78 (18:40) 0 0 0 0 0
06-08-2018 38.9 (17:00) 20.6 (00:00) 29.8 18.89 (20:10) 11.11 (20:10) 0 0 0 0 0
05-08-2018 37.5 (17:10) 20.7 (00:00) 29.1 7.78 (15:50) 4.17 (04:40) 0 0 0 0 0
04-08-2018 38.5 (17:30) 22.1 (08:00) 30.3 9.17 (16:20) 5 (05:10) 0 0 0 0 0
03-08-2018 40.1 (16:20) 22.8 (00:00) 31.4 10.28 (21:50) 6.67 (21:50) 0 0 0 0 0
02-08-2018 39.2 (17:10) 22.7 (00:00) 31 8.33 (18:50) 5 (09:00) 0 0 0 0 0
01-08-2018 38.7 (18:30) 19.3 (05:30) 29 6.67 (17:30) 4.44 (23:50) 0 0 0 0 0
31-07-2018 -- (--) -- (--) -- -- (--) -- (--) -- 0 -- 0 0
30-07-2018 33.5 (17:30) 13.4 (00:00) 23.4 8.89 (15:30) 4.44 (19:50) 0 0 0 0 0
29-07-2018 30.7 (17:40) 14.7 (00:00) 22.7 10 (16:50) 6.11 (15:30) 0 0 0 0 0
28-07-2018 33.3 (17:50) 14.3 (00:00) 23.8 10.56 (12:30) 6.11 (16:10) 0 0 0 0 0
27-07-2018 34 (16:40) 15.8 (00:00) 24.9 10.83 (18:30) 6.39 (19:30) 0 0 0 0 0
26-07-2018 33.5 (16:40) 16 (00:00) 24.8 8.89 (18:40) 4.72 (17:10) 0 0 0 0 0
25-07-2018 34.4 (17:50) 16.5 (00:00) 25.5 8.06 (18:50) 4.17 (20:10) 0 0 0 0 0
24-07-2018 33.4 (17:50) 15.9 (00:00) 24.7 8.89 (18:20) 4.17 (19:00) 0 0 0 0 0
23-07-2018 34.9 (17:00) 17.6 (00:00) 26.3 9.72 (17:30) 5.28 (19:20) 0 0 0 0 0
22-07-2018 33.6 (17:50) 19.2 (00:00) 26.4 9.72 (18:50) 4.72 (06:00) 0 0 0 0 0
21-07-2018 32 (17:40) 15.1 (00:00) 23.6 10.28 (16:20) 5.56 (20:00) 0 0 0 0 0
20-07-2018 30.5 (16:00) 14.3 (00:00) 22.4 11.94 (17:30) 7.22 (18:30) 0 0 0 0 0

Gráficas

Temp. máximas Temp. mínimas Temp. medias Precipitaciones Rachas de viento máximas Velocidades máximas media en intervalos de 10 minutos

Datos horarios

Fecha y hora oficial Temperatura (ºC) Velocidad del viento (km/h) Dirección del viento Racha (km/h) Dirección de racha Precipitación (mm) Presión (hPa) Tendencia (hPa) Humedad (%)
2018-08-18 23:00:00 25.9 13 Nordeste 22 Nordeste 0 -- -- 49
2018-08-18 22:00:00 28.4 18 Este 28 Este 0 -- -- 40
2018-08-18 21:00:00 30.2 9 Noroeste 19 Noroeste 0 -- -- 29
2018-08-18 20:00:00 31.8 14 Noroeste 31 Oeste 0 -- -- 28
2018-08-18 19:00:00 33 9 Noroeste 25 Oeste 0 -- -- 25
2018-08-18 18:00:00 33 14 Oeste 26 Oeste 0 -- -- 25
2018-08-18 17:00:00 33.3 9 Oeste 24 Sudoeste 0 -- -- 27
2018-08-18 16:00:00 31.6 8 Oeste 24 Noroeste 0 -- -- 31
2018-08-18 15:00:00 31.2 10 Oeste 23 Oeste 0 -- -- 34
2018-08-18 14:00:00 30.6 6 Sur 15 Oeste 0 -- -- 34
2018-08-18 13:00:00 28.7 4 Este 13 Sudeste 0 -- -- 45
2018-08-18 12:00:00 26.4 4 Sudeste 17 Este 0 -- -- 51
2018-08-18 11:00:00 24.4 10 Sudeste 20 Este 0 -- -- 60
2018-08-18 10:00:00 21.9 13 Este 25 Este 0 -- -- 70
2018-08-18 09:00:00 20.1 15 Este 23 Este 0 -- -- 76
2018-08-18 08:00:00 18.8 14 Este 21 Este 0 -- -- 81
2018-08-18 07:00:00 18.6 2 Este 19 Este 0 -- -- 79
2018-08-18 06:00:00 19.4 10 Este 20 Nordeste 0 -- -- 74
2018-08-18 05:00:00 19.3 13 Nordeste 20 Nordeste 0 -- -- 71
2018-08-18 04:00:00 20.6 14 Nordeste 17 Nordeste 0 -- -- 65
2018-08-18 03:00:00 21.8 7 Nordeste 19 Nordeste 0 -- -- 56
2018-08-18 02:00:00 23.2 6 Noroeste 8 Norte 0 -- -- 48
2018-08-18 01:00:00 22.4 4 Noroeste 6 Noroeste 0 -- -- 55
2018-08-18 00:00:00 23.3 3 Oeste 8 Noroeste 0 -- -- 50
2018-08-17 23:00:00 24.5 3 Norte 9 Norte 0 -- -- 47
2018-08-17 22:00:00 25.7 6 Norte 9 Noroeste 0 -- -- 46
2018-08-17 21:00:00 28.2 6 Noroeste 20 Noroeste 0 -- -- 38
2018-08-17 20:00:00 29.9 6 Nordeste 17 Nordeste 0 -- -- 33
2018-08-17 19:00:00 30.1 10 Noroeste 24 Noroeste 0 -- -- 34
2018-08-17 18:00:00 31.9 10 Noroeste 30 Noroeste 0 -- -- 29
2018-08-17 17:00:00 31.7 14 Noroeste 26 Oeste 0 -- -- 30
2018-08-17 16:00:00 30.8 7 Norte 22 Noroeste 0 -- -- 32
2018-08-17 15:00:00 30.6 9 Oeste 18 Oeste 0 -- -- 32
2018-08-17 14:00:00 28.9 10 Oeste 17 Oeste 0 -- -- 36
2018-08-17 13:00:00 27.5 4 Oeste 18 Noroeste 0 -- -- 38
2018-08-17 12:00:00 25.6 6 Noroeste 15 Oeste 0 -- -- 51
2018-08-17 11:00:00 23.7 6 Oeste 10 Noroeste 0 -- -- 57
2018-08-17 10:00:00 22.6 4 Sudoeste 8 Oeste 0 -- -- 59
2018-08-17 09:00:00 20.4 0 Calma 8 Noroeste 0 -- -- 68
2018-08-17 08:00:00 17.1 3 Este 8 Norte 0 -- -- 86
2018-08-17 07:00:00 17.6 4 Nordeste 9 Norte 0 -- -- 82
2018-08-17 06:00:00 18.6 5 Nordeste 11 Nordeste 0 -- -- 74
2018-08-17 05:00:00 18.3 2 Noroeste 7 Sudeste 0 -- -- 80
2018-08-17 04:00:00 19.3 4 Sur 8 Sudoeste 0 -- -- 72
2018-08-17 03:00:00 19.4 5 Oeste 23 Oeste 0.2 -- -- 74
2018-08-17 02:00:00 20 14 Oeste 26 Oeste 0 -- -- 71
2018-08-17 01:00:00 20.6 12 Oeste 33 Noroeste 0 -- -- 70
2018-08-17 00:00:00 20.8 4 Noroeste 13 Oeste 0 -- -- 63
2018-08-16 23:00:00 21.1 5 Sudeste 15 Sur 0 -- -- 59
2018-08-16 22:00:00 21.8 7 Sur 22 Oeste 0 -- -- 56
2018-08-16 21:00:00 22.1 14 Este 28 Este 0.2 -- -- 57
2018-08-16 20:00:00 20.3 23 Este 36 Nordeste 1.8 -- -- 68
2018-08-16 19:00:00 21.9 27 Nordeste 41 Nordeste 2.6 -- -- 67
2018-08-16 18:00:00 33 10 Sur 22 Oeste 0 -- -- 24
2018-08-16 17:00:00 32 12 Noroeste 30 Oeste 0 -- -- 26
2018-08-16 16:00:00 32.3 8 Sudoeste 23 Oeste 0 -- -- 27
2018-08-16 15:00:00 30.8 13 Oeste 22 Noroeste 0 -- -- 28
2018-08-16 14:00:00 29.8 10 Oeste 23 Oeste 0 -- -- 35
2018-08-16 13:00:00 28.5 7 Oeste 26 Oeste 0 -- -- 39
2018-08-16 12:00:00 26.7 12 Oeste 27 Oeste 0 -- -- 41
2018-08-16 11:00:00 24.7 13 Oeste 26 Oeste 0 -- -- 46
2018-08-16 10:00:00 23.2 13 Oeste 22 Oeste 0 -- -- 41
2018-08-16 09:00:00 21.1 10 Oeste 16 Sudoeste 0 -- -- 44
2018-08-16 08:00:00 18.5 4 Oeste 7 Oeste 0 -- -- 49
2018-08-16 07:00:00 19.2 3 Sudoeste 6 Sudoeste 0 -- -- 49
2018-08-16 06:00:00 19.6 0 Calma 10 Oeste 0 -- -- 47
2018-08-16 05:00:00 20 5 Oeste 9 Oeste 0 -- -- 44
2018-08-16 04:00:00 21.8 6 Oeste 16 Oeste 0 -- -- 39
2018-08-16 03:00:00 22.7 8 Oeste 14 Oeste 0 -- -- 36
2018-08-16 02:00:00 23.3 9 Oeste 16 Sudoeste 0 -- -- 33
2018-08-16 01:00:00 24.3 10 Oeste 17 Oeste 0 -- -- 30
2018-08-16 00:00:00 24.9 7 Sudoeste 14 Oeste 0 -- -- 31
2018-08-15 23:00:00 26.2 7 Sudoeste 18 Sudoeste 0 -- -- 30
2018-08-15 22:00:00 28.1 7 Sudoeste 16 Sudoeste 0 -- -- 27
2018-08-15 21:00:00 31 7 Sudoeste 19 Sudoeste 0 -- -- 24
2018-08-15 20:00:00 32.9 10 Oeste 24 Oeste 0 -- -- 23
2018-08-15 19:00:00 33.5 7 Oeste 27 Oeste 0 -- -- 23
2018-08-15 18:00:00 33.7 6 Noroeste 22 Oeste 0 -- -- 22
2018-08-15 17:00:00 33.9 12 Oeste 30 Oeste 0 -- -- 23
2018-08-15 16:00:00 33.7 13 Sudoeste 34 Oeste 0 -- -- 22
2018-08-15 15:00:00 32.7 12 Noroeste 24 Sudoeste 0 -- -- 22
2018-08-15 14:00:00 32.3 15 Oeste 30 Noroeste 0 -- -- 23
2018-08-15 13:00:00 31.2 14 Oeste 26 Oeste 0 -- -- 24
2018-08-15 12:00:00 29.5 9 Oeste 20 Oeste 0 -- -- 25
2018-08-15 11:00:00 27.4 5 Oeste 10 Sudoeste 0 -- -- 29
2018-08-15 10:00:00 25 5 Sudeste 10 Nordeste 0 -- -- 41
2018-08-15 09:00:00 21.9 7 Nordeste 13 Nordeste 0 -- -- 56
2018-08-15 08:00:00 19.7 12 Nordeste 15 Nordeste 0 -- -- 48
2018-08-15 07:00:00 20.1 6 Nordeste 9 Nordeste 0 -- -- 37
2018-08-15 06:00:00 19.8 5 Nordeste 7 Nordeste 0 -- -- 38
2018-08-15 05:00:00 19.9 5 Noroeste 7 Oeste 0 -- -- 39
2018-08-15 04:00:00 19.9 0 Calma 4 Nordeste 0 -- -- 39
2018-08-15 03:00:00 21.1 0 Calma 4 Nordeste 0 -- -- 36
2018-08-15 02:00:00 21.9 2 Norte 9 Nordeste 0 -- -- 34
2018-08-15 01:00:00 23.1 4 Nordeste 14 Norte 0 -- -- 33
2018-08-15 00:00:00 26.6 11 Norte 17 Noroeste 0 -- -- 25
2018-08-14 23:00:00 26.4 5 Noroeste 9 Noroeste 0 -- -- 26
2018-08-14 22:00:00 27.1 4 Noroeste 8 Oeste 0 -- -- 25
2018-08-14 21:00:00 31.5 7 Oeste 18 Sudoeste 0 -- -- 19
2018-08-14 20:00:00 33.2 10 Oeste 26 Oeste 0 -- -- 19
2018-08-14 19:00:00 34 7 Sudoeste 24 Oeste 0 -- -- 18
2018-08-14 18:00:00 34.3 9 Oeste 24 Oeste 0 -- -- 18
2018-08-14 17:00:00 33.7 9 Oeste 22 Sudoeste 0 -- -- 18
2018-08-14 16:00:00 33.4 9 Sur 21 Sudoeste 0 -- -- 19
2018-08-14 15:00:00 32.9 6 Sudoeste 22 Sudoeste 0 -- -- 20
2018-08-14 14:00:00 31.6 7 Sur 22 Sudoeste 0 -- -- 22
2018-08-14 13:00:00 30.8 8 Sudoeste 16 Sudoeste 0 -- -- 25
2018-08-14 12:00:00 29 4 Oeste 9 Sudoeste 0 -- -- 29
2018-08-14 11:00:00 26.2 4 Sudoeste 7 Noroeste 0 -- -- 37
2018-08-14 10:00:00 23.3 4 Oeste 6 Sudoeste 0 -- -- 43
2018-08-14 09:00:00 20.6 0 Calma 6 Noroeste 0 -- -- 48
2018-08-14 08:00:00 15.6 4 Oeste 6 Noroeste 0 -- -- 63
2018-08-14 07:00:00 16.5 0 Calma 8 Sudoeste 0 -- -- 58
2018-08-14 06:00:00 17.2 0 Calma 9 Noroeste 0 -- -- 53
2018-08-14 05:00:00 17.3 2 Noroeste 4 Noroeste 0 -- -- 53
2018-08-14 04:00:00 17.9 3 Noroeste 4 Oeste 0 -- -- 54
2018-08-14 03:00:00 18.9 2 Oeste 5 Oeste 0 -- -- 52
2018-08-14 02:00:00 20.7 0 Calma 9 Oeste 0 -- -- 47
2018-08-14 01:00:00 22.6 5 Noroeste 9 Noroeste 0 -- -- 42
2018-08-14 00:00:00 22.2 4 Noroeste 6 Noroeste 0 -- -- 42
2018-08-13 23:00:00 22.8 2 Noroeste 4 Norte 0 -- -- 38
2018-08-13 22:00:00 25.2 2 Oeste 15 Oeste 0 -- -- 30
2018-08-13 21:00:00 28.8 12 Oeste 27 Oeste 0 -- -- 22
2018-08-13 20:00:00 30.6 16 Oeste 32 Oeste 0 -- -- 15
2018-08-13 19:00:00 31.3 20 Oeste 38 Sudoeste 0 -- -- 17
2018-08-13 18:00:00 31.3 22 Oeste 37 Oeste 0 -- -- 26
2018-08-13 17:00:00 31.3 20 Oeste 38 Oeste 0 -- -- 27
2018-08-13 16:00:00 31 19 Oeste 35 Oeste 0 -- -- 26
2018-08-13 15:00:00 30.7 15 Oeste 35 Oeste 0 -- -- 28
2018-08-13 14:00:00 29.7 20 Oeste 34 Sudoeste 0 -- -- 28
2018-08-13 13:00:00 28.4 17 Oeste 31 Oeste 0 -- -- 34
2018-08-13 12:00:00 26.9 13 Oeste 25 Oeste 0 -- -- 39
2018-08-13 11:00:00 24.6 12 Oeste 21 Oeste 0 -- -- 49
2018-08-13 10:00:00 22.3 10 Oeste 18 Oeste 0 -- -- 58
2018-08-13 09:00:00 20.2 3 Oeste 7 Oeste 0 -- -- 63
2018-08-13 08:00:00 18.2 0 Calma 9 Oeste 0 -- -- 67
2018-08-13 07:00:00 18 5 Noroeste 8 Noroeste 0 -- -- 64
2018-08-13 06:00:00 18.5 0 Calma 4 Noroeste 0 -- -- 60
2018-08-13 05:00:00 19.2 0 Calma 8 Oeste 0 -- -- 58
2018-08-13 04:00:00 21 5 Oeste 10 Oeste 0 -- -- 51
2018-08-13 03:00:00 22 5 Oeste 12 Oeste 0 -- -- 47
2018-08-13 02:00:00 21.3 3 Oeste 8 Oeste 0 -- -- 53
2018-08-13 01:00:00 23 3 Norte 6 Oeste 0 -- -- 46
2018-08-13 00:00:00 24.2 4 Oeste 11 Oeste 0 -- -- 43
2018-08-12 23:00:00 26.1 0 Calma 9 Noroeste 0 -- -- 41
2018-08-12 22:00:00 28.1 5 Noroeste 20 Oeste 0 -- -- 34
2018-08-12 21:00:00 30.7 14 Oeste 31 Sudoeste 0 -- -- 30
2018-08-12 20:00:00 32.9 12 Sudoeste 32 Oeste 0 -- -- 28
2018-08-12 19:00:00 33.6 14 Sudoeste 31 Oeste 0 -- -- 28
2018-08-12 18:00:00 33.7 13 Sudoeste 33 Oeste 0 -- -- 29
2018-08-12 17:00:00 32.9 14 Sudoeste 32 Oeste 0 -- -- 32
2018-08-12 16:00:00 33.4 16 Oeste 34 Oeste 0 -- -- 33
2018-08-12 15:00:00 33 12 Sudoeste 26 Sudoeste 0 -- -- 34
2018-08-12 14:00:00 32.7 12 Sudoeste 37 Oeste 0 -- -- 34
2018-08-12 13:00:00 31.5 8 Sudoeste 25 Sudoeste 0 -- -- 38
2018-08-12 12:00:00 29.4 9 Sudoeste 18 Sudoeste 0 -- -- 48
2018-08-12 11:00:00 27.4 9 Sudoeste 19 Sudoeste 0 -- -- 53
2018-08-12 10:00:00 25.5 7 Sudoeste 13 Sudoeste 0 -- -- 62
2018-08-12 09:00:00 23.1 0 Calma 5 Sudoeste 0 -- -- 67
2018-08-12 08:00:00 19.7 0 Calma 2 Sur 0 -- -- 88
2018-08-12 07:00:00 20.1 3 Sur 4 Sur 0 -- -- 83
2018-08-12 06:00:00 21.7 0 Calma 10 Sur 0 -- -- 70
2018-08-12 05:00:00 22.3 6 Sudeste 15 Este 0 -- -- 66
2018-08-12 04:00:00 21.9 6 Nordeste 11 Nordeste 0 -- -- 65
2018-08-12 03:00:00 21.6 0 Calma 8 Oeste 0 -- -- 69
2018-08-12 02:00:00 21 3 Noroeste 9 Sudeste 0 -- -- 74
2018-08-12 01:00:00 21.8 4 Sudeste 19 Noroeste 0 -- -- 71
2018-08-12 00:00:00 21.3 3 Oeste 30 Sur 0.8 -- -- 74
2018-08-11 23:00:00 21.6 25 Sur 44 Sudeste 1 -- -- 72
2018-08-11 22:00:00 25.3 7 Sur -- -- 1.6 -- -- 57
2018-08-11 21:00:00 33 6 Norte 12 Sudoeste 0 -- -- 24
2018-08-11 20:00:00 34.1 6 Noroeste 17 Sudoeste 0 -- -- 23
2018-08-11 19:00:00 34.8 10 Oeste 24 Oeste 0 -- -- 22
2018-08-11 18:00:00 35.4 8 Sudoeste 19 Sudoeste 0 -- -- 23
2018-08-11 17:00:00 35.4 8 Sudoeste 22 Sur 0 -- -- 24
2018-08-11 16:00:00 33.8 9 Este 31 Sudeste 0 -- -- 25
2018-08-11 15:00:00 33.8 8 Sur 23 Sudeste 0 -- -- 25
2018-08-11 14:00:00 32.6 5 Sudeste 18 Sudeste 0 -- -- 29
2018-08-11 13:00:00 30.9 5 Norte 15 Sudeste 0 -- -- 30
2018-08-11 12:00:00 29.5 3 Nordeste 10 Oeste 0 -- -- 35
2018-08-11 11:00:00 27.7 4 Oeste 8 Oeste 0 -- -- 34
2018-08-11 10:00:00 26 2 Sudeste 9 Nordeste 0 -- -- 38
2018-08-11 09:00:00 23 5 Nordeste 6 Nordeste 0 -- -- 47
2018-08-11 08:00:00 18.6 4 Sudeste 6 Sudeste 0 -- -- 57
2018-08-11 07:00:00 18.8 2 Nordeste 4 Nordeste 0 -- -- 54
2018-08-11 06:00:00 19.2 2 Sur 6 Nordeste 0 -- -- 52
2018-08-11 05:00:00 20.2 0 Calma 5 Sudeste 0 -- -- 47
2018-08-11 04:00:00 21.8 4 Sudeste 7 Sur 0 -- -- 38
2018-08-11 03:00:00 21.8 6 Sudeste 9 Este 0 -- -- 31
2018-08-11 02:00:00 22.1 5 Nordeste 11 Este 0 -- -- 30
2018-08-11 01:00:00 23.3 11 Este 19 Este 0 -- -- 28
2018-08-11 00:00:00 23.7 4 Noroeste 15 Norte 0 -- -- 28
2018-08-10 23:00:00 27.7 10 Norte 17 Noroeste 0 -- -- 23
2018-08-10 22:00:00 27.4 3 Norte 12 Oeste 0 -- -- 24
2018-08-10 21:00:00 31.5 8 Oeste 17 Noroeste 0 -- -- 21
2018-08-10 20:00:00 -- -- -- -- -- -- -- -- --
2018-08-10 19:00:00 34.3 5 Norte 24 Oeste 0 -- -- 16
2018-08-10 18:00:00 33.7 9 Norte 22 Sudoeste 0 -- -- 18
2018-08-10 17:00:00 33.6 7 Oeste 24 Oeste 0 -- -- 19
2018-08-10 16:00:00 33 10 Oeste 22 Oeste 0 -- -- 19
2018-08-10 15:00:00 31.8 9 Oeste 20 Sudoeste 0 -- -- 22
2018-08-10 14:00:00 31.1 4 Sur 21 Sudeste 0 -- -- 23
2018-08-10 13:00:00 29.3 9 Este 21 Nordeste 0 -- -- 26
2018-08-10 12:00:00 26.8 13 Nordeste 23 Nordeste 0 -- -- 39
2018-08-10 11:00:00 24.1 15 Nordeste 27 Este 0 -- -- 46
2018-08-10 10:00:00 22.1 19 Este 26 Nordeste 0 -- -- 58
2018-08-10 09:00:00 20.8 14 Nordeste 31 Este 0 -- -- 53
2018-08-10 08:00:00 19.3 19 Este 28 Este 0 -- -- 43
2018-08-10 07:00:00 16.7 6 Nordeste 10 Nordeste 0 -- -- 38
2018-08-10 06:00:00 16 3 Nordeste 5 Nordeste 0 -- -- 39
2018-08-10 05:00:00 16.6 4 Nordeste 5 Nordeste 0 -- -- 38
2018-08-10 04:00:00 17.8 2 Nordeste 5 Nordeste 0 -- -- 36
2018-08-10 03:00:00 19.9 5 Norte 10 Noroeste 0 -- -- 31
2018-08-10 02:00:00 19.9 8 Noroeste 9 Noroeste 0 -- -- 31
2018-08-10 01:00:00 19.9 4 Noroeste 8 Noroeste 0 -- -- 32
2018-08-10 00:00:00 20.2 5 Noroeste 9 Noroeste 0 -- -- 32
2018-08-09 23:00:00 21.3 3 Noroeste 8 Noroeste 0 -- -- 32
2018-08-09 22:00:00 23.8 3 Oeste 12 Oeste 0 -- -- 28
2018-08-09 21:00:00 27.3 10 Oeste 21 Oeste 0 -- -- 25
2018-08-09 20:00:00 28.6 9 Oeste 26 Oeste 0 -- -- 24
2018-08-09 19:00:00 28.9 13 Oeste 30 Noroeste 0 -- -- 22
2018-08-09 18:00:00 28.9 15 Oeste 29 Oeste 0 -- -- 22
2018-08-09 17:00:00 28.7 14 Oeste 38 Oeste 0 -- -- 27
2018-08-09 16:00:00 28.6 18 Oeste 35 Noroeste 0 -- -- 30
2018-08-09 15:00:00 28.2 11 Oeste 38 Oeste 0 -- -- 28
2018-08-09 14:00:00 27 8 Sudoeste 27 Oeste 0 -- -- 35
2018-08-09 13:00:00 25.3 12 Oeste 26 Oeste 0 -- -- 40
2018-08-09 12:00:00 24.1 12 Oeste 34 Oeste 0 -- -- 45
2018-08-09 11:00:00 21.5 9 Oeste 21 Oeste 0 -- -- 54
2018-08-09 10:00:00 18.6 9 Oeste 16 Oeste 0 -- -- 66
2018-08-09 09:00:00 16.9 11 Oeste 20 Oeste 0 -- -- 73
2018-08-09 08:00:00 14.8 7 Oeste 11 Oeste 0 -- -- 77
2018-08-09 07:00:00 14.4 3 Oeste 7 Oeste 0 -- -- 72
2018-08-09 06:00:00 14.7 3 Oeste 7 Oeste 0 -- -- 66
2018-08-09 05:00:00 15.2 3 Oeste 9 Oeste 0 -- -- 60
2018-08-09 04:00:00 -- -- -- -- -- -- -- -- --
2018-08-09 03:00:00 -- -- -- -- -- -- -- -- --
2018-08-09 02:00:00 -- -- -- -- -- -- -- -- --
2018-08-09 01:00:00 -- -- -- -- -- -- -- -- --
2018-08-09 00:00:00 -- -- -- -- -- -- -- -- --
2018-08-08 23:00:00 -- -- -- -- -- -- -- -- --
2018-08-08 22:00:00 -- -- -- -- -- -- -- -- --
2018-08-08 21:00:00 -- -- -- -- -- -- -- -- --
2018-08-08 20:00:00 -- -- -- -- -- -- -- -- --
2018-08-08 19:00:00 -- -- -- -- -- -- -- -- --
2018-08-08 18:00:00 -- -- -- -- -- -- -- -- --
2018-08-08 17:00:00 -- -- -- -- -- -- -- -- --
2018-08-08 16:00:00 -- -- -- -- -- -- -- -- --
2018-08-08 15:00:00 33.5 21 Sudoeste 41 Sudoeste 0 -- -- 23
2018-08-08 14:00:00 33.3 17 Sudoeste 34 Sur 0 -- -- 24
2018-08-08 13:00:00 31.9 14 Sudoeste 35 Sudoeste 0 -- -- 26
2018-08-08 12:00:00 30.8 12 Sudoeste 30 Sudoeste 0 -- -- 28
2018-08-08 11:00:00 27.9 11 Sudoeste 19 Sur 0 -- -- 34
2018-08-08 10:00:00 24.7 6 Oeste 10 Oeste 0 -- -- 39
2018-08-08 09:00:00 21.9 0 Calma 4 Noroeste 0 -- -- 42
2018-08-08 08:00:00 18.5 0 Calma 4 Nordeste 0 -- -- 51
2018-08-08 07:00:00 18.5 3 Nordeste 8 Sudeste 0 -- -- 45
2018-08-08 06:00:00 18.8 3 Este 6 Nordeste 0 -- -- 40
2018-08-08 05:00:00 20.5 6 Nordeste 7 Nordeste 0 -- -- 35
2018-08-08 04:00:00 22.4 5 Noroeste 10 Noroeste 0 -- -- 30
2018-08-08 03:00:00 20.7 4 Noroeste 8 Oeste 0 -- -- 30
2018-08-08 02:00:00 22.1 0 Calma 5 Nordeste 0 -- -- 29
2018-08-08 01:00:00 23.6 2 Nordeste 18 Este 0 -- -- 25
2018-08-08 00:00:00 24.3 9 Este 17 Este 0 -- -- 23
2018-08-07 23:00:00 24.9 0 Calma 6 Oeste 0 -- -- 23
2018-08-07 22:00:00 27.9 4 Oeste 17 Noroeste 0 -- -- 19
2018-08-07 21:00:00 31 13 Oeste 31 Oeste 0 -- -- 14
2018-08-07 20:00:00 32.9 18 Oeste 33 Noroeste 0 -- -- 13
2018-08-07 19:00:00 35 23 Oeste 40 Oeste 0 -- -- 13
2018-08-07 18:00:00 35.9 25 Oeste 44 Oeste 0 -- -- 15
2018-08-07 17:00:00 36.3 23 Oeste 40 Oeste 0 -- -- 16
2018-08-07 16:00:00 36.6 18 Oeste 35 Oeste 0 -- -- 16
2018-08-07 15:00:00 36 18 Oeste 35 Oeste 0 -- -- 17
2018-08-07 14:00:00 34.9 14 Oeste 27 Sudoeste 0 -- -- 19
2018-08-07 13:00:00 33.2 12 Oeste 26 Oeste 0 -- -- 24
2018-08-07 12:00:00 31.4 13 Oeste 24 Oeste 0 -- -- 24
2018-08-07 11:00:00 29.1 9 Oeste 19 Oeste 0 -- -- 26
2018-08-07 10:00:00 26.8 8 Oeste 14 Oeste 0 -- -- 31
2018-08-07 09:00:00 25 6 Oeste 10 Oeste 0 -- -- 37
2018-08-07 08:00:00 22.4 6 Noroeste 8 Noroeste 0 -- -- 48
2018-08-07 07:00:00 21.6 0 Calma 8 Nordeste 0 -- -- 46
2018-08-07 06:00:00 22.5 5 Noroeste 8 Noroeste 0 -- -- 44
2018-08-07 05:00:00 24.2 4 Noroeste 9 Nordeste 0 -- -- 40
2018-08-07 04:00:00 26.8 7 Este 17 Nordeste 0 -- -- 36
2018-08-07 03:00:00 27.1 15 Nordeste 35 Nordeste 0 -- -- 37
2018-08-07 02:00:00 29.3 11 Noroeste 15 Noroeste 0 -- -- 23
2018-08-07 01:00:00 29.3 11 Nordeste 24 Nordeste 0 -- -- 22
2018-08-07 00:00:00 29.6 0 Calma 13 Sudeste 0 -- -- 23
2018-08-06 23:00:00 32.5 10 Este 37 Este 0 -- -- 19
2018-08-06 22:00:00 32.5 13 Este 23 Nordeste 0 -- -- 19
2018-08-06 21:00:00 33.8 11 Sur 68 Noroeste 0 -- -- 16
2018-08-06 20:00:00 33.5 15 Oeste 46 Oeste 0 -- -- 16
2018-08-06 19:00:00 33.9 12 Oeste 30 Oeste 0 -- -- 20
2018-08-06 18:00:00 37.4 10 Noroeste 18 Noroeste 0 -- -- 16
2018-08-06 17:00:00 38.9 8 Noroeste 21 Nordeste 0 -- -- 15
2018-08-06 16:00:00 38.2 8 Norte 28 Noroeste 0 -- -- 15
2018-08-06 15:00:00 38.1 12 Noroeste 26 Nordeste 0 -- -- 14
2018-08-06 14:00:00 36.8 5 Norte 25 Norte 0 -- -- 16
2018-08-06 13:00:00 35.6 5 Oeste 11 Oeste 0 -- -- 18
2018-08-06 12:00:00 32.8 7 Oeste 17 Noroeste 0 -- -- 21
2018-08-06 11:00:00 30.5 8 Oeste 14 Oeste 0 -- -- 26
2018-08-06 10:00:00 28.4 5 Oeste 9 Noroeste 0 -- -- 28
2018-08-06 09:00:00 25.1 0 Calma 3 Sudeste 0 -- -- 38
2018-08-06 08:00:00 20.9 2 Sudeste 4 Sudeste 0 -- -- 46
2018-08-06 07:00:00 21.6 0 Calma 7 Sudeste 0 -- -- 38
2018-08-06 06:00:00 22.5 4 Este 10 Nordeste 0 -- -- 34
2018-08-06 05:00:00 22.5 3 Nordeste 7 Este 0 -- -- 35
2018-08-06 04:00:00 25.2 6 Sudeste 13 Nordeste 0 -- -- 29
2018-08-06 03:00:00 27.6 10 Nordeste 17 Nordeste 0 -- -- 22
2018-08-06 02:00:00 28.8 12 Norte 17 Nordeste 0 -- -- 21
2018-08-06 01:00:00 28.5 8 Nordeste 10 Nordeste 0 -- -- 27
2018-08-06 00:00:00 28.8 8 Nordeste 10 Nordeste 0 -- -- 26
2018-08-05 23:00:00 30.6 6 Norte 14 Norte 0 -- -- 25
2018-08-05 22:00:00 32.4 9 Norte 13 Norte 0 -- -- 24
2018-08-05 21:00:00 34.6 6 Norte 19 Norte 0 -- -- 21
2018-08-05 20:00:00 36.2 12 Norte 23 Norte 0 -- -- 20
2018-08-05 19:00:00 36.4 9 Norte 25 Nordeste 0 -- -- 20
2018-08-05 18:00:00 37 9 Norte 25 Norte 0 -- -- 20
2018-08-05 17:00:00 36.8 5 Norte 23 Oeste 0 -- -- 17
2018-08-05 16:00:00 36.5 11 Norte 28 Noroeste 0 -- -- 17
2018-08-05 15:00:00 35.3 10 Norte 23 Noroeste 0 -- -- 23
2018-08-05 14:00:00 35 7 Oeste 22 Nordeste 0 -- -- 26
2018-08-05 13:00:00 33 6 Norte 20 Nordeste 0 -- -- 29
2018-08-05 12:00:00 31.6 8 Nordeste 18 Noroeste 0 -- -- 30
2018-08-05 11:00:00 29.3 6 Nordeste 16 Sudeste 0 -- -- 33
2018-08-05 10:00:00 27.3 9 Este 17 Este 0 -- -- 40
2018-08-05 09:00:00 25.4 5 Nordeste 9 Nordeste 0 -- -- 42
2018-08-05 08:00:00 21 4 Nordeste 6 Nordeste 0 -- -- 51
2018-08-05 07:00:00 21.6 4 Nordeste 8 Nordeste 0 -- -- 47
2018-08-05 06:00:00 23.6 3 Norte 16 Nordeste 0 -- -- 39
2018-08-05 05:00:00 26 12 Nordeste 22 Nordeste 0 -- -- 29
2018-08-05 04:00:00 27.2 13 Nordeste 15 Nordeste 0 -- -- 26
2018-08-05 03:00:00 28.2 6 Nordeste 16 Este 0 -- -- 25
2018-08-05 02:00:00 28.4 8 Nordeste 12 Nordeste 0 -- -- 25
2018-08-05 01:00:00 28.7 6 Norte 14 Noroeste 0 -- -- 24
2018-08-05 00:00:00 29.3 8 Nordeste 10 Nordeste 0 -- -- 23
2018-08-04 23:00:00 30.1 8 Nordeste 10 Nordeste 0 -- -- 23
2018-08-04 22:00:00 31.2 6 Norte 9 Nordeste 0 -- -- 23
2018-08-04 21:00:00 35 7 Norte 23 Nordeste 0 -- -- 19
2018-08-04 20:00:00 36.8 13 Norte 28 Nordeste 0 -- -- 17
2018-08-04 19:00:00 37.5 15 Nordeste 31 Nordeste 0 -- -- 16
2018-08-04 18:00:00 38.4 16 Norte 33 Noroeste 0 -- -- 15
2018-08-04 17:00:00 38.3 12 Nordeste 33 Nordeste 0 -- -- 14
2018-08-04 16:00:00 -- -- -- -- -- -- -- -- --
2018-08-04 15:00:00 37.3 10 Noroeste 28 Norte 0 -- -- 15
2018-08-04 14:00:00 35.9 15 Nordeste 29 Norte 0 -- -- 18
2018-08-04 13:00:00 34 8 Nordeste 24 Este 0 -- -- 25
2018-08-04 12:00:00 31.9 11 Nordeste 26 Nordeste 0 -- -- 34
2018-08-04 11:00:00 29.1 14 Este 25 Este 0 -- -- 43
2018-08-04 10:00:00 26.8 14 Este 27 Nordeste 0 -- -- 50
2018-08-04 09:00:00 24.6 17 Nordeste 26 Nordeste 0 -- -- 55
2018-08-04 08:00:00 22.1 0 Calma 10 Nordeste 0 -- -- 62
2018-08-04 07:00:00 23.8 6 Nordeste 17 Nordeste 0 -- -- 56
2018-08-04 06:00:00 24.9 12 Nordeste 24 Este 0 -- -- 52
2018-08-04 05:00:00 26 16 Nordeste 24 Este 0 -- -- 50
2018-08-04 04:00:00 27.7 17 Este 25 Nordeste 0 -- -- 42
2018-08-04 03:00:00 29.9 10 Nordeste 14 Nordeste 0 -- -- 28
2018-08-04 02:00:00 31.4 7 Nordeste 18 Nordeste 0 -- -- 26
2018-08-04 01:00:00 32.5 6 Norte 23 Norte 0 -- -- 25
2018-08-04 00:00:00 33.7 11 Norte 24 Norte 0 -- -- 24
2018-08-03 23:00:00 33.6 13 Noroeste 20 Norte 0 -- -- 23
2018-08-03 22:00:00 34.1 20 Noroeste 37 Noroeste 0 -- -- 25
2018-08-03 21:00:00 34.8 8 Norte 15 Noroeste 0 -- -- 23
2018-08-03 20:00:00 36.7 6 Norte 27 Norte 0 -- -- 20
2018-08-03 19:00:00 38.7 10 Norte 31 Nordeste 0 -- -- 18
2018-08-03 18:00:00 39.7 16 Nordeste 35 Norte 0 -- -- 17
2018-08-03 17:00:00 39.7 19 Nordeste 32 Nordeste 0 -- -- 16
2018-08-03 16:00:00 39.7 12 Norte 31 Nordeste 0 -- -- 18
2018-08-03 15:00:00 39.2 13 Norte 27 Nordeste 0 -- -- 18
2018-08-03 14:00:00 37.7 10 Oeste 23 Oeste 0 -- -- 20
2018-08-03 13:00:00 36.2 13 Noroeste 21 Oeste 0 -- -- 21
2018-08-03 12:00:00 33.5 9 Oeste 19 Oeste 0 -- -- 24
2018-08-03 11:00:00 31.3 9 Oeste 15 Oeste 0 -- -- 28
2018-08-03 10:00:00 29.2 6 Oeste 12 Oeste 0 -- -- 30
2018-08-03 09:00:00 26.9 4 Oeste 9 Nordeste 0 -- -- 37
2018-08-03 08:00:00 24.7 9 Nordeste 12 Nordeste 0 -- -- 39
2018-08-03 07:00:00 22.8 4 Noroeste 6 Noroeste 0 -- -- 44
2018-08-03 06:00:00 24.1 3 Oeste 9 Oeste 0 -- -- 39
2018-08-03 05:00:00 25 5 Noroeste 9 Noroeste 0 -- -- 36
2018-08-03 04:00:00 26.3 2 Sudoeste 12 Sudeste 0 -- -- 36
2018-08-03 03:00:00 28.7 8 Este 14 Sudeste 0 -- -- 30
2018-08-03 02:00:00 29.3 7 Este 19 Este 0 -- -- 28
2018-08-03 01:00:00 31.1 12 Este 19 Este 0 -- -- 24
2018-08-03 00:00:00 32.1 13 Este 22 Este 0 -- -- 22
2018-08-02 23:00:00 32.3 12 Este 19 Este 0 -- -- 22
2018-08-02 22:00:00 31.9 9 Nordeste 13 Este 0 -- -- 23
2018-08-02 21:00:00 35.6 7 Este 19 Este 0 -- -- 20
2018-08-02 20:00:00 37.3 11 Nordeste 26 Nordeste 0 -- -- 17
2018-08-02 19:00:00 38.2 12 Este 30 Este 0 -- -- 15
2018-08-02 18:00:00 38.6 7 Norte 22 Nordeste 0 -- -- 14
2018-08-02 17:00:00 38.8 6 Este 27 Este 0 -- -- 16
2018-08-02 16:00:00 38.3 4 Sudeste 20 Sudeste 0 -- -- 16
2018-08-02 15:00:00 37.3 9 Este 21 Este 0 -- -- 18
2018-08-02 14:00:00 36 11 Este 23 Este 0 -- -- 19
2018-08-02 13:00:00 34.6 9 Sudeste 20 Este 0 -- -- 21
2018-08-02 12:00:00 32 13 Este 22 Este 0 -- -- 25
2018-08-02 11:00:00 29 12 Nordeste 20 Nordeste 0 -- -- 30
2018-08-02 10:00:00 26.3 13 Nordeste 24 Nordeste 0 -- -- 34
2018-08-02 09:00:00 24 18 Nordeste 24 Nordeste 0 -- -- 36
2018-08-02 08:00:00 23 13 Nordeste 22 Este 0 -- -- 37
2018-08-02 07:00:00 24.2 15 Nordeste 18 Nordeste 0 -- -- 36
2018-08-02 06:00:00 24.8 12 Nordeste 14 Nordeste 0 -- -- 35
2018-08-02 05:00:00 24.1 11 Nordeste 14 Nordeste 0 -- -- 35
2018-08-02 04:00:00 24.6 8 Este 10 Este 0 -- -- 33
2018-08-02 03:00:00 25.2 6 Nordeste 12 Nordeste 0 -- -- 31
2018-08-02 02:00:00 27.4 8 Nordeste 23 Este 0 -- -- 26
2018-08-02 01:00:00 28.9 17 Nordeste 22 Nordeste 0 -- -- 24
2018-08-02 00:00:00 29.8 15 Nordeste 23 Este 0 -- -- 23
2018-08-01 23:00:00 31.9 14 Este 23 Nordeste 0 -- -- 21
2018-08-01 22:00:00 32.8 12 Nordeste 16 Nordeste 0 -- -- 20
2018-08-01 21:00:00 34.9 4 Nordeste 13 Este 0 -- -- 20
2018-08-01 20:00:00 37 9 Nordeste 14 Este 0 -- -- 16
2018-08-01 19:00:00 38.3 4 Sur 18 Norte 0 -- -- 15
2018-08-01 18:00:00 38.5 7 Oeste 24 Sur 0 -- -- 15
2018-08-01 17:00:00 38.3 7 Sudoeste 20 Sudoeste 0 -- -- 15
2018-08-01 16:00:00 37.8 9 Sur 21 Sudeste 0 -- -- 15
2018-08-01 15:00:00 37 10 Sur 24 Sudoeste 0 -- -- 17
2018-08-01 14:00:00 36.2 8 Sur 22 Sudoeste 0 -- -- 19
2018-08-01 13:00:00 34.8 8 Sur 18 Sudoeste 0 -- -- 20
2018-08-01 12:00:00 32.7 3 Sudoeste 15 Sudeste 0 -- -- 22
2018-08-01 11:00:00 30.9 9 Sudeste 15 Este 0 -- -- 23
2018-08-01 10:00:00 28.3 7 Sudeste 10 Este 0 -- -- 27
2018-08-01 09:00:00 24.5 0 Calma 9 Nordeste 0 -- -- 33
2018-08-01 08:00:00 20.4 6 Nordeste 9 Nordeste 0 -- -- 39
2018-08-01 07:00:00 19.8 4 Nordeste 9 Nordeste 0 -- -- 38
2018-08-01 06:00:00 19.5 5 Nordeste 8 Nordeste 0 -- -- 40
2018-08-01 05:00:00 20.3 0 Calma 6 Nordeste 0 -- -- 39
2018-08-01 04:00:00 21.1 4 Nordeste 8 Nordeste 0 -- -- 36
2018-08-01 03:00:00 21.7 4 Nordeste 7 Nordeste 0 -- -- 36
2018-08-01 02:00:00 22.5 3 Nordeste 4 Oeste 0 -- -- 34
2018-08-01 01:00:00 25.3 2 Norte 12 Noroeste 0 -- -- 29
2018-08-01 00:00:00 27.3 9 Norte 16 Noroeste 0 -- -- 26
2018-07-31 23:00:00 28.9 9 Norte 20 Noroeste 0 -- -- 24
2018-07-31 22:00:00 30 9 Noroeste 15 Noroeste 0 -- -- 24
2018-07-31 21:00:00 32.7 12 Noroeste 19 Noroeste 0 -- -- 21
2018-07-31 20:00:00 34.3 10 Oeste 23 Noroeste 0 -- -- 21
2018-07-31 19:00:00 34.9 6 Norte 22 Oeste 0 -- -- 21
2018-07-31 18:00:00 34.9 12 Oeste 23 Oeste 0 -- -- 21
2018-07-31 17:00:00 34.3 17 Noroeste 28 Oeste 0 -- -- 22
2018-07-31 16:00:00 34 10 Oeste 26 Oeste 0 -- -- 23
2018-07-31 15:00:00 32.7 8 Oeste 23 Oeste 0 -- -- 23
2018-07-31 14:00:00 32.5 5 Sudoeste 17 Noroeste 0 -- -- 24
2018-07-31 13:00:00 30.7 8 Noroeste 15 Oeste 0 -- -- 25
2018-07-31 12:00:00 -- -- -- -- -- -- -- -- --
2018-07-31 11:00:00 27.1 3 Sudoeste 6 Sudoeste 0 -- -- 38
2018-07-31 10:00:00 23.8 3 Noroeste 8 Oeste 0 -- -- 45
2018-07-31 09:00:00 21.2 4 Oeste 6 Oeste 0 -- -- 51
2018-07-31 08:00:00 16.2 0 Calma 4 Oeste 0 -- -- 64
2018-07-31 07:00:00 16.1 2 Nordeste 3 Nordeste 0 -- -- 63
2018-07-31 06:00:00 16.8 0 Calma 5 Noroeste 0 -- -- 55
2018-07-31 05:00:00 17.1 2 Noroeste 3 Noroeste 0 -- -- 54
2018-07-31 04:00:00 18.5 0 Calma 3 Noroeste 0 -- -- 47
2018-07-31 03:00:00 19.2 2 Noroeste 4 Noroeste 0 -- -- 48
2018-07-31 02:00:00 21 0 Calma 8 Noroeste 0 -- -- 38
2018-07-31 01:00:00 22.8 6 Noroeste 11 Noroeste 0 -- -- 33
2018-07-31 00:00:00 23.1 6 Noroeste 10 Noroeste 0 -- -- 27
2018-07-30 23:00:00 25 7 Noroeste 11 Noroeste 0 -- -- 25
2018-07-30 22:00:00 27.4 7 Noroeste 23 Oeste 0 -- -- 25
2018-07-30 21:00:00 30.4 14 Oeste 25 Oeste 0 -- -- 19
2018-07-30 20:00:00 31.8 14 Oeste 26 Oeste 0 -- -- 19
2018-07-30 19:00:00 32.8 12 Sudoeste 27 Oeste 0 -- -- 17
2018-07-30 18:00:00 33.2 9 Sudoeste 28 Oeste 0 -- -- 19
2018-07-30 17:00:00 32.5 9 Noroeste 27 Oeste 0 -- -- 20
2018-07-30 16:00:00 32.2 8 Sudoeste 32 Oeste 0 -- -- 22
2018-07-30 15:00:00 31 7 Noroeste 24 Oeste 0 -- -- 22
2018-07-30 14:00:00 30.2 6 Sudoeste 22 Norte 0 -- -- 25
2018-07-30 13:00:00 28.4 8 Oeste 22 Oeste 0 -- -- 27
2018-07-30 12:00:00 26.8 5 Oeste 15 Oeste 0 -- -- 29
2018-07-30 11:00:00 24.1 6 Noroeste 10 Oeste 0 -- -- 38
2018-07-30 10:00:00 21.3 6 Oeste 9 Oeste 0 -- -- 45
2018-07-30 09:00:00 18.5 2 Oeste 6 Oeste 0 -- -- 50
2018-07-30 08:00:00 13.7 0 Calma 4 Oeste 0 -- -- 62
2018-07-30 07:00:00 14 0 Calma 6 Oeste 0 -- -- 57
2018-07-30 06:00:00 14.7 5 Noroeste 7 Noroeste 0 -- -- 52
2018-07-30 05:00:00 15.1 3 Oeste 5 Oeste 0 -- -- 46
2018-07-30 04:00:00 15.5 2 Noroeste 4 Noroeste 0 -- -- 42
2018-07-30 03:00:00 16.9 2 Noroeste 6 Noroeste 0 -- -- 38
2018-07-30 02:00:00 17.5 4 Noroeste 5 Noroeste 0 -- -- 32
2018-07-30 01:00:00 19.1 0 Calma 4 Oeste 0 -- -- 23
2018-07-30 00:00:00 20.6 3 Noroeste 9 Noroeste 0 -- -- 19
2018-07-29 23:00:00 22.9 8 Noroeste 14 Noroeste 0 -- -- 15
2018-07-29 22:00:00 24.9 8 Oeste 20 Oeste 0 -- -- 16
2018-07-29 21:00:00 27.6 16 Oeste 30 Oeste 0 -- -- 18
2018-07-29 20:00:00 29.1 19 Oeste 31 Oeste 0 -- -- 15
2018-07-29 19:00:00 29.8 20 Oeste 36 Oeste 0 -- -- 15
2018-07-29 18:00:00 30.6 20 Oeste 34 Oeste 0 -- -- 14
2018-07-29 17:00:00 30.5 19 Oeste 36 Oeste 0 -- -- 13
2018-07-29 16:00:00 30.1 17 Oeste 33 Oeste 0 -- -- 16
2018-07-29 15:00:00 29.5 18 Oeste 34 Oeste 0 -- -- 21
2018-07-29 14:00:00 27.9 17 Oeste 31 Oeste 0 -- -- 28
2018-07-29 13:00:00 26.3 16 Oeste 31 Oeste 0 -- -- 37
2018-07-29 12:00:00 24.9 16 Oeste 30 Oeste 0 -- -- 44
2018-07-29 11:00:00 22.6 11 Oeste 23 Oeste 0 -- -- 56
2018-07-29 10:00:00 20.8 10 Oeste 17 Oeste 0 -- -- 60
2018-07-29 09:00:00 18.9 8 Oeste 13 Oeste 0 -- -- 68
2018-07-29 08:00:00 15 0 Calma 2 Sudoeste 0 -- -- 75
2018-07-29 07:00:00 15 0 Calma 3 Oeste 0 -- -- 66
2018-07-29 06:00:00 15.3 0 Calma 5 Oeste 0 -- -- 60
2018-07-29 05:00:00 16.5 3 Oeste 6 Oeste 0 -- -- 53
2018-07-29 04:00:00 17.9 0 Calma 10 Oeste 0 -- -- 44
2018-07-29 03:00:00 17.7 3 Noroeste 6 Oeste 0 -- -- 38
2018-07-29 02:00:00 19.7 4 Oeste 9 Oeste 0 -- -- 32
2018-07-29 01:00:00 20.4 3 Noroeste 8 Oeste 0 -- -- 26
2018-07-29 00:00:00 20.9 0 Calma 4 Nordeste 0 -- -- 26
2018-07-28 23:00:00 23.4 0 Calma 17 Noroeste 0 -- -- 22
2018-07-28 22:00:00 26.4 13 Noroeste 24 Oeste 0 -- -- 19
2018-07-28 21:00:00 29.3 16 Noroeste 31 Oeste 0 -- -- 17
2018-07-28 20:00:00 31 19 Oeste 33 Oeste -- -- -- 16
2018-07-28 19:00:00 32.6 19 Oeste 34 Oeste 0 -- -- 16
2018-07-28 18:00:00 33.2 15 Oeste 35 Oeste 0 -- -- 17
2018-07-28 17:00:00 32.8 18 Oeste 37 Oeste 0 -- -- 17
2018-07-28 16:00:00 32.6 15 Oeste 37 Oeste 0 -- -- 19
2018-07-28 15:00:00 31.8 13 Sudoeste 35 Oeste 0 -- -- 23
2018-07-28 14:00:00 30.7 17 Sudoeste 34 Oeste 0 -- -- 23
2018-07-28 13:00:00 29.5 16 Sudoeste 38 Oeste 0 -- -- 27
2018-07-28 12:00:00 28.3 14 Sudoeste 31 Oeste 0 -- -- 30
2018-07-28 11:00:00 25.1 5 Sudoeste 14 Sudoeste 0 -- -- 40
2018-07-28 10:00:00 22.1 7 Oeste 13 Oeste 0 -- -- 48
2018-07-28 09:00:00 19.7 5 Sudoeste 7 Sur 0 -- -- 58
2018-07-28 08:00:00 14.5 0 Calma 2 Sudoeste 0 -- -- 68
2018-07-28 07:00:00 14.8 0 Calma 4 Noroeste 0 -- -- 63
2018-07-28 06:00:00 16.2 2 Noroeste 6 Oeste 0 -- -- 55
2018-07-28 05:00:00 16.6 2 Noroeste 4 Noroeste 0 -- -- 51
2018-07-28 04:00:00 17.6 0 Calma 5 Noroeste 0 -- -- 47
2018-07-28 03:00:00 18.6 0 Calma 3 Noroeste 0 -- -- 42
2018-07-28 02:00:00 20.6 2 Noroeste 6 Norte 0 -- -- 38
2018-07-28 01:00:00 21.9 5 Noroeste 9 Noroeste 0 -- -- 33
2018-07-28 00:00:00 22.9 4 Noroeste 11 Oeste 0 -- -- 32
2018-07-27 23:00:00 25.2 8 Noroeste 17 Oeste 0 -- -- 27
2018-07-27 22:00:00 27.4 10 Noroeste 23 Noroeste 0 -- -- 21
2018-07-27 21:00:00 30.3 17 Noroeste 32 Noroeste 0 -- -- 18
2018-07-27 20:00:00 31.5 20 Noroeste 36 Norte 0 -- -- 21
2018-07-27 19:00:00 32.6 18 Noroeste 39 Noroeste 0 -- -- 26
2018-07-27 18:00:00 33.9 14 Noroeste 36 Sudoeste 0 -- -- 23
2018-07-27 17:00:00 33.8 14 Sudoeste 31 Sudoeste 0 -- -- 21
2018-07-27 16:00:00 33.3 16 Oeste 33 Sudoeste 0 -- -- 19
2018-07-27 15:00:00 32.8 12 Sudoeste 29 Oeste 0 -- -- 23
2018-07-27 14:00:00 31.5 16 Oeste 29 Sudoeste 0 -- -- 24
2018-07-27 13:00:00 30.5 10 Oeste 30 Oeste 0 -- -- 30
2018-07-27 12:00:00 28.5 9 Oeste 19 Oeste 0 -- -- 34
2018-07-27 11:00:00 26.4 7 Oeste 14 Oeste 0 -- -- 39
2018-07-27 10:00:00 24.4 3 Sudoeste 7 Oeste 0 -- -- 38
2018-07-27 09:00:00 21.6 0 Calma 2 Sudoeste 0 -- -- 38
2018-07-27 08:00:00 16.1 0 Calma 2 Nordeste 0 -- -- 51
2018-07-27 07:00:00 16.2 0 Calma 3 Nordeste 0 -- -- 46
2018-07-27 06:00:00 17.1 0 Calma 3 Noroeste 0 -- -- 41
2018-07-27 05:00:00 17.8 0 Calma 4 Nordeste 0 -- -- 39
2018-07-27 04:00:00 18.4 2 Este 3 Nordeste 0 -- -- 39
2018-07-27 03:00:00 18.8 0 Calma 4 Nordeste 0 -- -- 39
2018-07-27 02:00:00 19.8 0 Calma 2 Norte 0 -- -- 39
2018-07-27 01:00:00 21.5 2 Norte 5 Noroeste 0 -- -- 33
2018-07-27 00:00:00 23.1 3 Noroeste 5 Noroeste 0 -- -- 32
2018-07-26 23:00:00 25.8 5 Noroeste 15 Noroeste 0 -- -- 27
2018-07-26 22:00:00 27.9 11 Noroeste 25 Noroeste 0 -- -- 25
2018-07-26 21:00:00 30.3 14 Noroeste 25 Noroeste 0 -- -- 26
2018-07-26 20:00:00 31.9 14 Noroeste 24 Oeste 0 -- -- 24
2018-07-26 19:00:00 32.9 11 Oeste 32 Oeste 0 -- -- 23
2018-07-26 18:00:00 33.2 13 Oeste 31 Oeste 0 -- -- 23
2018-07-26 17:00:00 33.3 12 Oeste 30 Oeste 0 -- -- 22
2018-07-26 16:00:00 32.6 9 Noroeste 23 Oeste 0 -- -- 22
2018-07-26 15:00:00 32.3 9 Sudoeste 23 Sudoeste 0 -- -- 23
2018-07-26 14:00:00 30.8 10 Oeste 23 Oeste 0 -- -- 29
2018-07-26 13:00:00 29.4 8 Sudoeste 23 Oeste 0 -- -- 33
2018-07-26 12:00:00 27.7 10 Oeste 18 Oeste 0 -- -- 38
2018-07-26 11:00:00 25.3 10 Noroeste 20 Oeste 0 -- -- 43
2018-07-26 10:00:00 22.9 13 Oeste 18 Oeste 0 -- -- 49
2018-07-26 09:00:00 20.6 5 Oeste 8 Oeste 0 -- -- 51
2018-07-26 08:00:00 16.3 2 Oeste 3 Oeste 0 -- -- 63
2018-07-26 07:00:00 16.6 0 Calma 4 Nordeste 0 -- -- 59
2018-07-26 06:00:00 17 2 Noroeste 5 Oeste 0 -- -- 56
2018-07-26 05:00:00 17.8 0 Calma 4 Oeste 0 -- -- 52
2018-07-26 04:00:00 19.4 3 Oeste 8 Noroeste 0 -- -- 47
2018-07-26 03:00:00 19.7 5 Noroeste 6 Oeste 0 -- -- 47
2018-07-26 02:00:00 20.9 2 Noroeste 5 Noroeste 0 -- -- 43
2018-07-26 01:00:00 21.9 2 Noroeste 7 Sur 0 -- -- 33
2018-07-26 00:00:00 26 5 Noroeste 15 Noroeste 0 -- -- 29
2018-07-25 23:00:00 27.3 10 Norte 22 Noroeste 0 -- -- 23
2018-07-25 22:00:00 28.4 6 Noroeste 19 Oeste 0 -- -- 24
2018-07-25 21:00:00 32 9 Oeste 24 Oeste 0 -- -- 19
2018-07-25 20:00:00 33.3 12 Oeste 23 Oeste 0 -- -- 19
2018-07-25 19:00:00 33.5 14 Oeste 29 Oeste 0 -- -- 18
2018-07-25 18:00:00 34.3 10 Sudoeste 27 Sudoeste 0 -- -- 20
2018-07-25 17:00:00 33.7 11 Noroeste 27 Oeste 0 -- -- 20
2018-07-25 16:00:00 33.5 8 Sudoeste 21 Oeste 0 -- -- 22
2018-07-25 15:00:00 32.7 9 Sudoeste 22 Oeste 0 -- -- 21
2018-07-25 14:00:00 31.5 6 Sudoeste 20 Sudoeste 0 -- -- 22
2018-07-25 13:00:00 30.5 9 Sudoeste 17 Sur 0 -- -- 28
2018-07-25 12:00:00 28.2 7 Oeste 19 Oeste 0 -- -- 31
2018-07-25 11:00:00 26.2 6 Noroeste 10 Noroeste 0 -- -- 35
2018-07-25 10:00:00 23.4 5 Oeste 9 Oeste 0 -- -- 43
2018-07-25 09:00:00 21.1 6 Oeste 8 Oeste 0 -- -- 48
2018-07-25 08:00:00 16.5 2 Norte 8 Nordeste 0 -- -- 63
2018-07-25 07:00:00 17.1 4 Nordeste 8 Nordeste 0 -- -- 58
2018-07-25 06:00:00 16.8 4 Noroeste 6 Noroeste 0 -- -- 57
2018-07-25 05:00:00 17.2 0 Calma 5 Oeste 0 -- -- 55
2018-07-25 04:00:00 18.1 2 Oeste 5 Oeste 0 -- -- 52
2018-07-25 03:00:00 20 3 Noroeste 6 Oeste 0 -- -- 47
2018-07-25 02:00:00 21.1 5 Noroeste 6 Noroeste 0 -- -- 44
2018-07-25 01:00:00 22.8 5 Noroeste 12 Noroeste 0 -- -- 40
2018-07-25 00:00:00 24.1 9 Noroeste 12 Noroeste 0 -- -- 37
2018-07-24 23:00:00 25.7 3 Oeste 18 Norte 0 -- -- 33
2018-07-24 22:00:00 27.9 9 Noroeste 20 Noroeste 0 -- -- 29
2018-07-24 21:00:00 30.5 13 Noroeste 23 Oeste 0 -- -- 27
2018-07-24 20:00:00 32 11 Noroeste 30 Noroeste 0 -- -- 24
2018-07-24 19:00:00 33 15 Oeste 32 Oeste 0 -- -- 21
2018-07-24 18:00:00 33.3 13 Noroeste 28 Sudoeste 0 -- -- 20
2018-07-24 17:00:00 32.9 13 Oeste 27 Oeste 0 -- -- 19
2018-07-24 16:00:00 32.2 10 Oeste 24 Oeste 0 -- -- 20
2018-07-24 15:00:00 31.5 10 Oeste 28 Sudoeste 0 -- -- 22
2018-07-24 14:00:00 30.7 10 Sudoeste 25 Sur 0 -- -- 22
2018-07-24 13:00:00 29 8 Oeste 26 Sudoeste 0 -- -- 26
2018-07-24 12:00:00 27.3 9 Sudoeste 19 Sudoeste 0 -- -- 38
2018-07-24 11:00:00 24.8 5 Sudoeste 15 Oeste 0 -- -- 44
2018-07-24 10:00:00 22.7 8 Oeste 14 Oeste 0 -- -- 51
2018-07-24 09:00:00 20.9 8 Oeste 12 Oeste 0 -- -- 56
2018-07-24 08:00:00 16.3 3 Oeste 5 Oeste 0 -- -- 67
2018-07-24 07:00:00 16.1 0 Calma 5 Norte 0 -- -- 57
2018-07-24 06:00:00 17.3 0 Calma 4 Oeste 0 -- -- 53
2018-07-24 05:00:00 18.6 3 Oeste 8 Noroeste 0 -- -- 49
2018-07-24 04:00:00 18.4 3 Oeste 4 Noroeste 0 -- -- 47
2018-07-24 03:00:00 19.3 0 Calma 4 Norte 0 -- -- 43
2018-07-24 02:00:00 20.4 0 Calma 5 Oeste 0 -- -- 39
2018-07-24 01:00:00 21.8 3 Noroeste 5 Noroeste 0 -- -- 36
2018-07-24 00:00:00 23.4 3 Noroeste 11 Oeste 0 -- -- 32
2018-07-23 23:00:00 26.8 6 Oeste 14 Sudoeste 0 -- -- 25
2018-07-23 22:00:00 29.2 6 Sudoeste 26 Sudoeste 0 -- -- 21
2018-07-23 21:00:00 32 15 Sudoeste 30 Oeste 0 -- -- 18
2018-07-23 20:00:00 33.6 11 Sudoeste 31 Oeste 0 -- -- 20
2018-07-23 19:00:00 34.4 15 Sudoeste 31 Oeste 0 -- -- 19
2018-07-23 18:00:00 34.3 19 Oeste 35 Sudoeste 0 -- -- 19
2018-07-23 17:00:00 34.9 13 Sudoeste 31 Sur 0 -- -- 21
2018-07-23 16:00:00 34.3 11 Sur 30 Sudoeste 0 -- -- 22
2018-07-23 15:00:00 33.8 14 Sudoeste 28 Oeste 0 -- -- 20
2018-07-23 14:00:00 32.4 12 Sudoeste 27 Sudoeste 0 -- -- 21
2018-07-23 13:00:00 31.1 9 Sudoeste 23 Sur 0 -- -- 26
2018-07-23 12:00:00 29.2 4 Oeste 20 Sudoeste 0 -- -- 30
2018-07-23 11:00:00 27.4 8 Sudoeste 17 Sudoeste 0 -- -- 35
2018-07-23 10:00:00 25.8 5 Sudoeste 13 Sudoeste 0 -- -- 38
2018-07-23 09:00:00 23.5 3 Sudoeste 5 Sur 0 -- -- 43
2018-07-23 08:00:00 17.9 2 Nordeste 4 Nordeste 0 -- -- 58
2018-07-23 07:00:00 17.9 2 Norte 3 Noroeste 0 -- -- 54
2018-07-23 06:00:00 18.1 3 Noroeste 4 Noroeste 0 -- -- 52
2018-07-23 05:00:00 18.5 0 Calma 2 Norte 0 -- -- 49
2018-07-23 04:00:00 19.5 0 Calma 4 Noroeste 0 -- -- 44
2018-07-23 03:00:00 19.9 2 Noroeste 3 Noroeste 0 -- -- 44
2018-07-23 02:00:00 21 0 Calma 7 Noroeste 0 -- -- 38
2018-07-23 01:00:00 21.6 3 Noroeste 5 Nordeste 0 -- -- 37
2018-07-23 00:00:00 23.3 4 Nordeste 9 Sudeste 0 -- -- 33
2018-07-22 23:00:00 26.8 3 Norte 19 Norte 0 -- -- 27
2018-07-22 22:00:00 29 11 Noroeste 18 Noroeste 0 -- -- 25
2018-07-22 21:00:00 31.7 11 Oeste 24 Oeste 0 -- -- 21
2018-07-22 20:00:00 32.9 9 Sudoeste 26 Oeste 0 -- -- 20
2018-07-22 19:00:00 33 13 Oeste 35 Oeste 0 -- -- 21
2018-07-22 18:00:00 33.6 12 Oeste 31 Oeste 0 -- -- 21
2018-07-22 17:00:00 32.8 14 Oeste 31 Oeste 0 -- -- 23
2018-07-22 16:00:00 32.5 14 Oeste 28 Sudoeste 0 -- -- 23
2018-07-22 15:00:00 31.8 7 Sur 25 Oeste 0 -- -- 24
2018-07-22 14:00:00 30.8 9 Oeste 24 Oeste 0 -- -- 23
2018-07-22 13:00:00 29.5 9 Sudoeste 26 Oeste 0 -- -- 29
2018-07-22 12:00:00 28.1 8 Sudoeste 15 Oeste 0 -- -- 32
2018-07-22 11:00:00 25.2 3 Sudoeste 12 Nordeste 0 -- -- 46
2018-07-22 10:00:00 22 8 Nordeste 14 Nordeste 0 -- -- 57
2018-07-22 09:00:00 20.5 7 Nordeste 14 Este 0 -- -- 69
2018-07-22 08:00:00 20.2 11 Este 24 Este 0 -- -- 67
2018-07-22 07:00:00 20.2 14 Nordeste 23 Este 0 -- -- 50
2018-07-22 06:00:00 20.6 17 Este 23 Este 0 -- -- 49
2018-07-22 05:00:00 19.2 9 Nordeste 17 Nordeste 0 -- -- 44
2018-07-22 04:00:00 21.1 0 Calma 11 Norte 0 -- -- 42
2018-07-22 03:00:00 22 6 Norte 10 Noroeste 0 -- -- 41
2018-07-22 02:00:00 21.9 7 Noroeste 12 Noroeste 0 -- -- 37
2018-07-22 01:00:00 21 0 Calma 8 Sudeste 0 -- -- 33
2018-07-22 00:00:00 22.2 4 Sudeste 10 Sudeste 0 -- -- 28
2018-07-21 23:00:00 24.3 5 Noroeste 9 Noroeste 0 -- -- 24
2018-07-21 22:00:00 26.4 7 Noroeste 21 Oeste 0 -- -- 23
2018-07-21 21:00:00 29.3 15 Noroeste 27 Oeste 0 -- -- 23
2018-07-21 20:00:00 30.6 20 Oeste 32 Oeste 0 -- -- 19
2018-07-21 19:00:00 31.4 14 Oeste 32 Oeste 0 -- -- 21
2018-07-21 18:00:00 31.8 14 Oeste 32 Sudoeste 0 -- -- 22
2018-07-21 17:00:00 31.4 17 Oeste 37 Oeste 0 -- -- 24
2018-07-21 16:00:00 31.3 12 Oeste 28 Oeste 0 -- -- 24
2018-07-21 15:00:00 30.3 13 Oeste 24 Oeste 0 -- -- 27
2018-07-21 14:00:00 29.3 6 Sudoeste 26 Sudoeste 0 -- -- 31
2018-07-21 13:00:00 28.5 10 Oeste 24 Oeste 0 -- -- 33
2018-07-21 12:00:00 27 8 Oeste 18 Oeste 0 -- -- 36
2018-07-21 11:00:00 25 4 Sudoeste 10 Oeste 0 -- -- 44
2018-07-21 10:00:00 22.1 6 Oeste 10 Oeste 0 -- -- 52
2018-07-21 09:00:00 19.9 5 Oeste 8 Oeste 0 -- -- 59
2018-07-21 08:00:00 16.3 2 Oeste 8 Noroeste 0 -- -- 71
2018-07-21 07:00:00 15.2 0 Calma 4 Este 0 -- -- 70
2018-07-21 06:00:00 16.5 0 Calma 5 Nordeste 0 -- -- 65
2018-07-21 05:00:00 18 5 Noroeste 8 Noroeste 0 -- -- 60
2018-07-21 04:00:00 18.3 5 Oeste 8 Oeste 0 -- -- 57
2018-07-21 03:00:00 19.8 2 Noroeste 14 Noroeste 0 -- -- 54
2018-07-21 02:00:00 21.6 9 Noroeste 15 Noroeste 0 -- -- 48
2018-07-21 01:00:00 20.7 3 Noroeste 8 Oeste 0 -- -- 48
2018-07-21 00:00:00 21.5 2 Noroeste 4 Norte 0 -- -- 46
2018-07-20 23:00:00 22.8 2 Noroeste 8 Oeste 0 -- -- 42
2018-07-20 22:00:00 25.4 7 Oeste 25 Oeste 0 -- -- 35
2018-07-20 21:00:00 27.8 14 Oeste 32 Oeste 0 -- -- 28
2018-07-20 20:00:00 28.8 17 Oeste 38 Oeste 0 -- -- 25
2018-07-20 19:00:00 29.6 22 Oeste 40 Oeste 0 -- -- 25
2018-07-20 18:00:00 29.6 23 Oeste 43 Oeste 0 -- -- 26
2018-07-20 17:00:00 30.2 22 Oeste 41 Oeste 0 -- -- 24
2018-07-20 16:00:00 30.5 16 Oeste 34 Oeste 0 -- -- 25
2018-07-20 15:00:00 30 15 Oeste 31 Sudoeste 0 -- -- 25
2018-07-20 14:00:00 28.7 14 Oeste 29 Oeste 0 -- -- 28
2018-07-20 13:00:00 27.2 13 Oeste 28 Oeste 0 -- -- 30
2018-07-20 12:00:00 25.5 13 Oeste 23 Oeste 0 -- -- 36
2018-07-20 11:00:00 22.9 9 Oeste 20 Oeste 0 -- -- 48
2018-07-20 10:00:00 20.8 11 Oeste 17 Oeste 0 -- -- 52
2018-07-20 09:00:00 19.2 4 Sudoeste 9 Oeste 0 -- -- 57
2018-07-20 08:00:00 15.1 0 Calma 3 Sudoeste 0 -- -- 67
2018-07-20 07:00:00 14.5 0 Calma 4 Sur 0 -- -- 63
2018-07-20 06:00:00 14.7 0 Calma 2 Noroeste 0 -- -- 57
2018-07-20 05:00:00 15.4 0 Calma 2 Nordeste 0 -- -- 52
2018-07-20 04:00:00 16.7 0 Calma 4 Oeste 0 -- -- 45
2018-07-20 03:00:00 18 3 Oeste 7 Noroeste 0 -- -- 40
2018-07-20 02:00:00 18.4 0 Calma 4 Oeste 0 -- -- 38
2018-07-20 01:00:00 19.8 0 Calma 6 Noroeste 0 -- -- 32
2018-07-20 00:00:00 22.3 5 Noroeste 12 Noroeste 0 -- -- 27